Time;durP1;ratioP1;P1;durP2;ratioP2;P2;SDS_P1;SDS_P2;PMS_P1;PMS_P2;Temp;Humidity;BMP_temperature;BMP_pressure;BME280_temperature;BME280_humidity;BME280_pressure;Samples;Min_cycle;Max_cycle;Signal;HPM_P1;HPM_P2
2022/10/01 00:02:06;;;;;;;6.72;3.50;;;;;;;14.73;100.00;98527.06;5090857;28;20119;-92
2022/10/01 00:04:34;;;;;;;9.23;3.90;;;;;;;14.79;100.00;98545.50;5090785;28;20066;-92
2022/10/01 00:07:03;;;;;;;10.37;4.40;;;;;;;14.80;100.00;98549.91;5090659;28;20109;-93
2022/10/01 00:09:30;;;;;;;7.93;3.70;;;;;;;14.81;100.00;98559.66;5090786;28;20044;-93
2022/10/01 00:11:58;;;;;;;5.38;2.97;;;;;;;14.89;100.00;98576.22;5087973;28;20032;-92
2022/10/01 00:14:24;;;;;;;5.00;2.97;;;;;;;14.95;100.00;98578.63;5090124;28;20040;-94
2022/10/01 00:16:50;;;;;;;5.75;3.10;;;;;;;14.89;100.00;98568.19;5090331;28;20047;-90
2022/10/01 00:19:16;;;;;;;6.13;2.95;;;;;;;14.98;100.00;98575.81;5090469;28;20052;-92
2022/10/01 00:21:42;;;;;;;5.60;2.92;;;;;;;14.77;100.00;98544.72;5090795;28;20123;-90
2022/10/01 00:24:12;;;;;;;5.57;3.00;;;;;;;15.05;100.00;98586.19;5090124;28;20048;-91
2022/10/01 00:26:38;;;;;;;6.95;3.10;;;;;;;15.04;100.00;98577.31;5090341;28;20043;-92
2022/10/01 00:29:06;;;;;;;6.03;3.30;;;;;;;15.05;100.00;98586.19;5090151;28;20045;-92
2022/10/01 00:31:32;;;;;;;7.00;3.57;;;;;;;14.91;100.00;98568.13;5087879;28;20117;-90
2022/10/01 00:34:01;;;;;;;7.32;3.30;;;;;;;14.97;100.00;98570.53;5089424;28;20277;-91
2022/10/01 00:36:27;;;;;;;6.03;3.17;;;;;;;14.97;100.00;98568.72;5089939;28;20119;-92
2022/10/01 00:38:59;;;;;;;5.57;3.20;;;;;;;14.96;100.00;98566.97;5090044;28;20064;-91
2022/10/01 00:41:27;;;;;;;5.05;3.17;;;;;;;14.98;100.00;98553.50;5090453;28;20036;-91
2022/10/01 00:43:55;;;;;;;7.13;3.60;;;;;;;15.17;100.00;98578.44;5089951;28;20409;-91
2022/10/01 00:46:26;;;;;;;8.48;3.60;;;;;;;15.20;100.00;98586.34;5090045;28;20269;-94
2022/10/01 00:48:57;;;;;;;5.32;3.30;;;;;;;15.14;100.00;98575.94;5089374;28;20536;-91
2022/10/01 00:51:28;;;;;;;7.53;3.20;;;;;;;15.08;100.00;98564.66;5089782;28;20062;-92
2022/10/01 00:54:01;;;;;;;6.72;3.50;;;;;;;15.25;100.00;98579.91;5089478;28;20509;-92
2022/10/01 00:56:29;;;;;;;5.63;3.45;;;;;;;15.02;100.00;98544.38;5088951;28;20114;-91
2022/10/01 00:58:56;;;;;;;6.55;3.28;;;;;;;15.18;100.00;98566.81;5088010;28;20437;-90
2022/10/01 01:01:23;;;;;;;6.05;3.38;;;;;;;15.07;100.00;98546.81;5074741;28;20079;-90
2022/10/01 01:03:49;;;;;;;8.98;3.65;;;;;;;15.18;100.00;98576.66;5075372;28;20514;-91
2022/10/01 01:06:15;;;;;;;9.32;3.55;;;;;;;15.12;100.00;98555.53;5075427;28;20094;-90
2022/10/01 01:08:42;;;;;;;7.60;3.40;;;;;;;15.09;100.00;98555.66;5075521;28;20090;-91
2022/10/01 01:11:15;;;;;;;7.03;3.33;;;;;;;15.08;100.00;98568.19;5075441;28;20072;-91
2022/10/01 01:13:52;;;;;;;7.25;3.33;;;;;;;15.10;100.00;98568.97;5074869;28;20048;-91
2022/10/01 01:16:25;;;;;;;6.60;3.50;;;;;;;15.10;100.00;98577.00;5075163;28;20044;-92
2022/10/01 01:18:58;;;;;;;9.27;3.75;;;;;;;15.11;100.00;98583.22;5074750;28;20386;-91
2022/10/01 01:21:29;;;;;;;6.78;3.50;;;;;;;14.98;100.00;98566.88;5074454;28;20037;-91
2022/10/01 01:24:18;;;;;;;8.00;3.42;;;;;;;15.09;100.00;98585.13;5074631;28;20052;-90
2022/10/01 01:26:59;;;;;;;6.38;3.50;;;;;;;15.19;100.00;98595.31;5071608;28;20067;-91
2022/10/01 01:29:32;;;;;;;7.63;3.75;;;;;;;15.19;100.00;98587.28;5073979;28;20044;-91
2022/10/01 01:32:06;;;;;;;8.65;3.88;;;;;;;15.07;100.00;98565.56;5075335;28;20536;-91
2022/10/01 01:34:34;;;;;;;8.95;4.90;;;;;;;15.22;100.00;98599.66;5075481;28;20048;-92
2022/10/01 01:37:06;;;;;;;12.15;4.90;;;;;;;14.94;100.00;98563.50;5075311;28;20036;-90
2022/10/01 01:39:33;;;;;;;12.05;5.22;;;;;;;15.12;100.00;98593.03;5075429;28;20119;-91
2022/10/01 01:42:04;;;;;;;10.10;5.18;;;;;;;15.17;100.00;98590.97;5075382;28;20062;-90
2022/10/01 01:44:38;;;;;;;8.18;4.20;;;;;;;15.14;100.00;98589.31;5075035;28;20494;-91
2022/10/01 01:47:06;;;;;;;10.07;4.30;;;;;;;14.99;100.00;98571.31;5074716;28;20629;-93
2022/10/01 01:49:33;;;;;;;10.87;5.50;;;;;;;14.98;100.00;98583.84;5075336;28;20139;-91
2022/10/01 01:52:04;;;;;;;10.43;5.53;;;;;;;15.17;100.00;98605.22;5075186;28;20765;-89
2022/10/01 01:54:33;;;;;;;11.15;5.72;;;;;;;15.14;100.00;98597.34;5074705;28;20379;-93
2022/10/01 01:57:00;;;;;;;13.50;6.15;;;;;;;15.13;100.00;98605.44;5075423;28;20428;-91
2022/10/01 01:59:26;;;;;;;10.70;5.57;;;;;;;15.14;100.00;98597.34;5075259;28;20039;-92
2022/10/01 02:01:54;;;;;;;10.77;6.38;;;;;;;15.15;100.00;98601.75;5074845;28;20052;-91
2022/10/01 02:04:24;;;;;;;11.90;6.00;;;;;;;15.16;100.00;98610.69;5075237;28;20040;-91
2022/10/01 02:07:18;;;;;;;12.98;6.05;;;;;;;15.22;100.00;98612.19;5074216;28;20032;-92
2022/10/01 02:09:53;;;;;;;9.07;5.40;;;;;;;15.20;100.00;98610.47;5073048;28;20040;-92
2022/10/01 02:12:29;;;;;;;10.63;5.18;;;;;;;15.16;100.00;98591.94;5073409;28;20090;-93
2022/10/01 02:15:06;;;;;;;13.68;5.32;;;;;;;15.14;100.00;98597.34;5074641;28;20048;-92
2022/10/01 02:17:45;;;;;;;8.88;4.97;;;;;;;15.22;100.00;98610.34;5074588;28;20101;-91
2022/10/01 02:20:17;;;;;;;12.15;5.68;;;;;;;15.25;100.00;98620.94;5073860;28;20037;-93
2022/10/01 02:22:48;;;;;;;8.60;4.72;;;;;;;15.14;100.00;98613.44;5072193;28;20044;-91
2022/10/01 02:25:17;;;;;;;10.07;5.25;;;;;;;15.10;100.00;98609.16;5073657;28;20048;-91
2022/10/01 02:27:48;;;;;;;8.68;5.30;;;;;;;15.14;100.00;98608.06;5074217;28;20045;-93
2022/10/01 02:30:14;;;;;;;12.63;5.22;;;;;;;15.20;100.00;98622.94;5073848;28;20040;-92
2022/10/01 02:32:45;;;;;;;9.85;4.88;;;;;;;15.19;100.00;98626.59;5074311;28;20585;-92
2022/10/01 02:35:15;;;;;;;10.98;4.82;;;;;;;15.20;100.00;98620.28;5074145;28;20045;-92
2022/10/01 02:37:43;;;;;;;10.18;5.30;;;;;;;15.12;100.00;98599.25;5074151;28;20402;-92
2022/10/01 02:40:14;;;;;;;9.50;5.18;;;;;;;15.21;100.00;98622.03;5073584;28;20041;-93
2022/10/01 02:42:43;;;;;;;11.30;4.63;;;;;;;15.15;100.00;98617.81;5073857;28;20036;-91
2022/10/01 02:45:12;;;;;;;9.23;5.18;;;;;;;15.13;100.00;98613.50;5073670;28;20037;-92
2022/10/01 02:47:44;;;;;;;10.18;4.57;;;;;;;15.18;100.00;98624.88;5073625;28;20038;-92
2022/10/01 02:50:11;;;;;;;9.90;4.75;;;;;;;15.13;100.00;98618.84;5073720;28;20032;-90
2022/10/01 02:52:41;;;;;;;11.70;5.07;;;;;;;15.07;100.00;98603.06;5073556;28;20066;-92
2022/10/01 02:55:11;;;;;;;12.20;5.22;;;;;;;15.03;100.00;98599.69;5074277;28;20072;-92
2022/10/01 02:57:37;;;;;;;11.55;5.43;;;;;;;15.09;100.00;98606.53;5073697;28;20064;-95
2022/10/01 03:00:05;;;;;;;11.13;5.38;;;;;;;15.19;100.00;98630.13;5073919;28;20434;-90
2022/10/01 03:02:31;;;;;;;9.43;5.28;;;;;;;15.00;100.00;98592.63;5072911;28;20032;-92
2022/10/01 03:04:59;;;;;;;10.10;5.30;;;;;;;15.15;100.00;98625.84;5074038;28;20119;-91
2022/10/01 03:07:26;;;;;;;10.18;5.13;;;;;;;15.04;100.00;98608.59;5071036;28;20078;-92
2022/10/01 03:09:52;;;;;;;8.80;4.90;;;;;;;14.96;100.00;98608.94;5072639;28;20052;-91
2022/10/01 03:12:19;;;;;;;10.43;5.68;;;;;;;15.10;100.00;98635.06;5073292;28;20045;-90
2022/10/01 03:14:45;;;;;;;11.38;5.35;;;;;;;15.12;100.00;98642.09;5073661;28;20855;-91
2022/10/01 03:17:12;;;;;;;11.00;5.80;;;;;;;15.02;100.00;98627.38;5073633;28;20051;-91
2022/10/01 03:19:39;;;;;;;13.18;5.38;;;;;;;14.97;100.00;98627.63;5074233;28;20041;-91
2022/10/01 03:22:06;;;;;;;12.77;6.35;;;;;;;15.11;100.00;98660.91;5073187;28;20083;-91
2022/10/01 03:24:32;;;;;;;12.60;6.22;;;;;;;14.93;100.00;98636.72;5072266;28;20494;-93
2022/10/01 03:26:58;;;;;;;13.80;6.53;;;;;;;14.97;100.00;98645.50;5073406;28;20135;-94
2022/10/01 03:29:24;;;;;;;14.75;6.70;;;;;;;15.12;100.00;98668.00;5073417;28;20367;-92
2022/10/01 03:31:50;;;;;;;10.75;6.07;;;;;;;15.15;100.00;98660.69;5073560;28;20060;-91
2022/10/01 03:34:16;;;;;;;13.05;6.20;;;;;;;15.15;100.00;98668.72;5073083;28;20033;-89
2022/10/01 03:36:42;;;;;;;12.65;6.30;;;;;;;15.10;100.00;98653.81;5073374;28;20531;-92
2022/10/01 03:39:09;;;;;;;12.63;6.68;;;;;;;14.94;100.00;98633.13;5073464;28;20059;-91
2022/10/01 03:41:36;;;;;;;17.80;7.40;;;;;;;15.09;100.00;98649.38;5073678;28;20067;-93
2022/10/01 03:44:01;;;;;;;13.95;6.50;;;;;;;14.91;100.00;98614.50;5073258;28;20045;-92
2022/10/01 03:46:27;;;;;;;12.70;6.30;;;;;;;14.90;100.00;98619.97;5072895;28;20128;-95
2022/10/01 03:48:54;;;;;;;9.52;5.70;;;;;;;15.07;100.00;98652.16;5073065;28;20052;-92
2022/10/01 03:51:19;;;;;;;12.75;6.10;;;;;;;14.92;100.00;98635.00;5073836;28;20037;-94
2022/10/01 03:53:46;;;;;;;15.18;5.65;;;;;;;15.13;100.00;98657.19;5073448;28;20054;-93
2022/10/01 03:56:14;;;;;;;12.10;5.30;;;;;;;15.02;100.00;98637.25;5073368;28;20539;-93
2022/10/01 03:58:39;;;;;;;13.02;5.80;;;;;;;15.00;100.00;98638.16;5072789;28;20052;-93
2022/10/01 04:01:05;;;;;;;10.75;5.82;;;;;;;15.10;100.00;98656.50;5073779;28;20042;-92
2022/10/01 04:03:31;;;;;;;10.88;5.30;;;;;;;14.97;100.00;98630.28;5073661;28;20090;-92
2022/10/01 04:05:57;;;;;;;10.05;5.40;;;;;;;15.02;100.00;98642.59;5073308;28;20040;-92
2022/10/01 04:08:23;;;;;;;12.82;5.68;;;;;;;15.13;100.00;98665.25;5073180;28;20048;-93
2022/10/01 04:10:49;;;;;;;9.65;5.10;;;;;;;15.14;100.00;98676.84;5073476;28;20086;-91
2022/10/01 04:13:16;;;;;;;9.00;5.38;;;;;;;15.15;100.00;98676.75;5072930;28;20456;-90
2022/10/01 04:15:42;;;;;;;8.50;4.80;;;;;;;15.03;100.00;98658.59;5072766;28;20040;-92
2022/10/01 04:18:10;;;;;;;10.52;5.35;;;;;;;14.96;100.00;98641.97;5072750;28;20036;-92
2022/10/01 04:20:37;;;;;;;14.57;5.80;;;;;;;15.10;100.00;98664.53;5072381;28;20125;-92
2022/10/01 04:23:03;;;;;;;14.77;7.40;;;;;;;15.15;100.00;98673.22;5073134;28;20063;-92
2022/10/01 04:25:29;;;;;;;15.57;7.60;;;;;;;15.08;100.00;98658.38;5073221;28;20033;-94
2022/10/01 04:27:57;;;;;;;20.60;7.72;;;;;;;15.22;100.00;98677.31;5072572;28;20067;-94
2022/10/01 04:30:26;;;;;;;15.97;8.20;;;;;;;15.14;100.00;98676.84;5073063;28;20036;-91
2022/10/01 04:32:52;;;;;;;15.50;6.13;;;;;;;15.13;100.00;98677.78;5072250;28;20048;-90
2022/10/01 04:35:18;;;;;;;17.48;8.13;;;;;;;15.17;100.00;98698.13;5073948;28;20512;-90
2022/10/01 04:37:44;;;;;;;18.77;8.50;;;;;;;15.20;100.00;98703.31;5076199;28;20036;-91
2022/10/01 04:40:10;;;;;;;20.77;8.65;;;;;;;15.04;100.00;98686.25;5076354;28;20413;-92
2022/10/01 04:42:38;;;;;;;14.80;7.47;;;;;;;15.17;100.00;98706.16;5076604;28;20098;-90
2022/10/01 04:45:05;;;;;;;21.17;7.97;;;;;;;15.05;100.00;98693.31;5076526;28;20040;-93
2022/10/01 04:47:32;;;;;;;22.15;9.27;;;;;;;15.16;100.00;98713.31;5076288;28;20098;-92
2022/10/01 04:49:58;;;;;;;14.43;6.80;;;;;;;15.10;100.00;98702.03;5076133;28;20039;-91
2022/10/01 04:52:24;;;;;;;12.93;6.65;;;;;;;15.18;100.00;98710.59;5076712;28;20032;-92
2022/10/01 04:54:51;;;;;;;15.15;6.75;;;;;;;15.06;100.00;98690.59;5076289;28;20046;-91
2022/10/01 04:57:17;;;;;;;13.15;5.78;;;;;;;15.09;100.00;98708.31;5075611;28;20071;-93
2022/10/01 04:59:42;;;;;;;10.52;5.35;;;;;;;15.18;100.00;98715.94;5076256;28;20048;-91
2022/10/01 05:02:08;;;;;;;13.77;6.57;;;;;;;15.12;100.00;98694.78;5076705;28;20040;-94
2022/10/01 05:04:36;;;;;;;11.07;5.55;;;;;;;15.10;100.00;98715.41;5077038;28;20067;-90
2022/10/01 05:07:01;;;;;;;8.90;4.70;;;;;;;15.05;100.00;98725.47;5076124;28;20398;-91
2022/10/01 05:09:27;;;;;;;11.95;4.18;;;;;;;15.04;100.00;98729.09;5076951;28;20033;-92
2022/10/01 05:11:53;;;;;;;9.35;4.65;;;;;;;15.04;100.00;98731.75;5077326;28;20036;-92
2022/10/01 05:14:20;;;;;;;7.40;4.18;;;;;;;15.03;100.00;98732.69;5077596;28;20055;-94
2022/10/01 05:16:46;;;;;;;7.68;4.40;;;;;;;14.88;100.00;98712.88;5076913;28;20040;-93
2022/10/01 05:19:12;;;;;;;7.22;4.68;;;;;;;15.05;100.00;98736.16;5076199;28;20481;-91
2022/10/01 05:21:39;;;;;;;8.88;4.72;;;;;;;15.08;100.00;98746.75;5076317;28;20040;-92
2022/10/01 05:24:05;;;;;;;13.02;6.20;;;;;;;15.03;100.00;98743.41;5076735;28;20036;-92
2022/10/01 05:26:31;;;;;;;8.18;4.00;;;;;;;15.02;100.00;98761.28;5076969;28;20044;-91
2022/10/01 05:28:59;;;;;;;11.15;4.95;;;;;;;14.98;100.00;98751.66;5076986;28;20052;-93
2022/10/01 05:31:25;;;;;;;9.32;4.20;;;;;;;14.97;100.00;98766.00;5078670;28;20071;-94
2022/10/01 05:33:51;;;;;;;6.85;3.90;;;;;;;14.87;100.00;98740.56;5078757;28;20068;-93
2022/10/01 05:36:17;;;;;;;6.53;3.92;;;;;;;14.71;100.00;98730.53;5077654;28;20037;-94
2022/10/01 05:38:46;;;;;;;8.38;4.25;;;;;;;14.78;100.00;98744.53;5077186;28;20067;-93
2022/10/01 05:41:12;;;;;;;8.63;3.95;;;;;;;14.85;100.00;98759.34;5076902;28;20047;-93
2022/10/01 05:43:38;;;;;;;9.32;3.85;;;;;;;14.81;100.00;98755.06;5076930;28;20044;-92
2022/10/01 05:46:04;;;;;;;9.75;4.80;;;;;;;14.74;100.00;98750.94;5076915;28;20040;-92
2022/10/01 05:48:35;;;;;;;9.48;4.10;;;;;;;14.68;100.00;98744.06;5076713;28;20083;-95
2022/10/01 05:51:03;;;;;;;6.53;4.18;;;;;;;14.56;100.00;98734.75;5076817;28;20135;-92
2022/10/01 05:53:28;;;;;;;8.23;4.50;;;;;;;14.61;100.00;98755.97;5076599;28;20065;-95
2022/10/01 05:55:57;;;;;;;6.95;4.10;;;;;;;14.39;100.00;98729.25;5076740;28;20110;-94
2022/10/01 05:58:23;;;;;;;;;;;;;;;14.55;100.00;98772.28;5076836;28;20032;-93
2022/10/01 06:00:49;;;;;;;13.27;4.00;;;;;;;14.42;100.00;98771.03;5076430;28;20404;-94
2022/10/01 06:03:15;;;;;;;7.68;3.85;;;;;;;14.21;100.00;98754.97;5076556;28;20040;-93
2022/10/01 06:05:43;;;;;;;7.22;3.90;;;;;;;14.19;100.00;98762.19;5076860;28;20060;-95
2022/10/01 06:08:09;;;;;;;7.85;4.30;;;;;;;14.21;100.00;98775.50;5076333;28;20064;-94
2022/10/01 06:10:35;;;;;;;6.40;3.95;;;;;;;14.10;100.00;98768.78;5076580;28;20071;-95
2022/10/01 06:13:04;;;;;;;10.63;4.50;;;;;;;14.31;100.00;98803.59;5076495;28;20044;-93
2022/10/01 06:15:33;;;;;;;8.57;4.18;;;;;;;14.28;100.00;98790.38;5076451;28;20102;-94
2022/10/01 06:18:01;;;;;;;8.32;4.25;;;;;;;14.20;100.00;98771.09;5076609;28;20080;-93
2022/10/01 06:20:27;;;;;;;9.48;4.40;;;;;;;14.25;100.00;98777.09;5076168;28;20040;-94
2022/10/01 06:22:55;;;;;;;7.93;4.20;;;;;;;14.31;100.00;98777.75;5076469;28;20098;-92
2022/10/01 06:25:21;;;;;;;6.95;4.43;;;;;;;14.31;100.00;98768.81;5076609;28;20033;-94
2022/10/01 06:27:52;;;;;;;6.05;4.15;;;;;;;14.44;100.00;98774.53;5076162;28;20067;-94
2022/10/01 06:30:19;;;;;;;10.45;5.25;;;;;;;14.56;100.00;98768.69;5076290;28;20522;-92
2022/10/01 06:32:45;;;;;;;7.72;5.10;;;;;;;14.79;100.00;98795.31;5076288;28;20443;-94
2022/10/01 06:35:11;;;;;;;10.77;5.07;;;;;;;14.77;100.00;98780.28;5076489;28;20037;-95
2022/10/01 06:37:37;;;;;;;7.85;4.57;;;;;;;15.01;100.00;98794.38;5076276;28;20040;-94
2022/10/01 06:40:04;;;;;;;11.85;5.55;;;;;;;15.18;100.00;98780.22;5076294;28;20118;-94
2022/10/01 06:42:30;;;;;;;12.07;5.47;;;;;;;15.41;100.00;98820.19;5076108;28;20062;-94
2022/10/01 06:44:55;;;;;;;11.00;5.25;;;;;;;15.41;100.00;98816.66;5076083;28;20041;-93
2022/10/01 06:47:23;;;;;;;10.13;5.57;;;;;;;15.25;100.00;98799.56;5075833;28;20406;-93
2022/10/01 06:49:49;;;;;;;10.60;6.03;;;;;;;15.27;100.00;98816.44;5075814;28;20044;-95
2022/10/01 06:55:10;;;;;;;11.23;5.80;;;;;;;15.27;100.00;98849.44;5105825;27;20560;-96
2022/10/01 06:57:35;;;;;;;10.45;6.07;;;;;;;15.10;100.00;98822.56;5072666;28;20040;-94
2022/10/01 07:00:01;;;;;;;10.05;6.18;;;;;;;15.23;100.00;98821.06;5071876;28;20087;-93
2022/10/01 07:02:30;;;;;;;13.02;6.03;;;;;;;15.07;100.00;98810.19;5072140;28;20039;-95
2022/10/01 07:05:00;;;;;;;11.68;6.43;;;;;;;15.16;100.00;98798.19;5072609;28;20044;-93
2022/10/01 07:07:28;;;;;;;13.70;6.45;;;;;;;15.39;100.00;98814.03;5072237;28;20041;-94
2022/10/01 07:10:16;;;;;;;10.88;6.20;;;;;;;15.66;100.00;98812.84;5072311;28;20041;-93
2022/10/01 07:12:50;;;;;;;8.95;5.97;;;;;;;15.84;100.00;98809.31;5043887;28;20107;-94
2022/10/01 07:15:25;;;;;;;14.90;6.80;;;;;;;15.97;100.00;98812.28;5052345;28;20390;-96
2022/10/01 07:18:48;;;;;;;;;;;;;;;;;;;;;
2022/10/01 07:21:38;;;;;;;8.23;5.75;;;;;;;16.38;100.00;98801.34;5051252;28;20052;-95
2022/10/01 07:24:17;;;;;;;11.23;5.15;;;;;;;16.83;100.00;98802.66;5055891;28;20029;-96
2022/10/01 07:26:58;;;;;;;9.18;5.43;;;;;;;17.10;100.00;98803.00;5054973;28;20182;-94
2022/10/01 07:36:20;;;;;;;9.55;4.60;;;;;;;17.36;95.92;98819.56;5045115;28;20049;-94
2022/10/01 07:38:47;;;;;;;8.35;4.97;;;;;;;17.33;96.79;98803.59;5030694;28;20572;-93
2022/10/01 07:41:16;;;;;;;8.07;4.80;;;;;;;17.59;96.04;98823.69;5046800;28;20048;-93
2022/10/01 07:43:48;;;;;;;7.22;4.20;;;;;;;17.49;92.74;98822.44;5039991;28;20414;-94
2022/10/01 07:46:17;;;;;;;7.00;4.07;;;;;;;17.53;95.58;98824.03;5042089;28;20187;-94
2022/10/01 07:48:46;;;;;;;8.80;4.20;;;;;;;17.21;89.95;98845.41;5033160;28;20073;-93
2022/10/01 07:51:12;;;;;;;7.15;3.70;;;;;;;17.29;92.51;98843.19;5032133;28;20041;-94
2022/10/01 07:53:47;;;;;;;;;;;;;;;17.34;91.17;98870.69;5037843;28;20058;-93
2022/10/01 07:56:31;;;;;;;5.53;3.97;;;;;;;17.28;91.67;98830.69;5044162;28;19990;-96
2022/10/01 09:07:11;;;;;;;4.38;3.10;;;;;;;18.82;80.92;98909.19;1917113;23;20305;-93
2022/10/01 09:10:04;;;;;;;3.83;2.75;;;;;;;18.27;75.49;98870.09;4985556;28;20066;-96
2022/10/01 09:13:12;;;;;;;5.13;2.90;;;;;;;18.40;74.02;98870.25;4987061;28;20054;-93
2022/10/01 09:15:55;;;;;;;5.68;2.80;;;;;;;18.30;76.22;98870.88;4984069;28;20047;-93
2022/10/01 09:18:36;;;;;;;6.80;3.22;;;;;;;18.15;75.60;98865.41;4974381;28;20131;-92
2022/10/01 09:21:11;;;;;;;7.25;3.20;;;;;;;18.47;74.54;98882.41;4966291;29;20043;-93
2022/10/01 09:23:47;;;;;;;8.80;3.10;;;;;;;18.67;75.83;98877.69;4967351;28;20047;-94
2022/10/01 09:26:22;;;;;;;5.88;3.15;;;;;;;18.91;80.30;98864.66;4960801;28;20043;-93
2022/10/01 09:28:53;;;;;;;5.90;2.72;;;;;;;19.02;73.56;98864.88;4965797;29;20055;-96
2022/10/01 09:31:29;;;;;;;5.90;2.70;;;;;;;19.04;71.51;98867.44;4967104;29;20047;-95
2022/10/01 09:34:28;;;;;;;4.97;2.67;;;;;;;19.49;73.59;98909.63;4962337;29;20067;-96
2022/10/01 09:37:18;;;;;;;7.32;2.83;;;;;;;18.83;74.96;98872.31;4966451;29;20062;-95
2022/10/01 09:40:15;;;;;;;6.40;2.90;;;;;;;19.09;71.26;98870.75;4973610;28;20039;-96
2022/10/01 09:42:46;;;;;;;4.90;3.03;;;;;;;19.32;72.72;98873.88;4979126;28;20077;-95
2022/10/01 09:45:26;;;;;;;3.47;2.72;;;;;;;19.49;70.65;98881.78;4970068;28;20122;-93
2022/10/01 09:48:04;;;;;;;3.95;2.63;;;;;;;19.50;69.89;98899.72;4974628;28;20039;-94
2022/10/01 09:50:49;;;;;;;6.93;2.92;;;;;;;19.74;70.61;98902.75;4976830;28;20516;-95
2022/10/01 09:53:36;;;;;;;7.37;3.20;;;;;;;19.93;71.64;98890.78;4970097;28;20144;-96
2022/10/01 09:56:43;;;;;;;7.18;3.08;;;;;;;20.25;70.25;98888.72;4980168;28;20583;-93
2022/10/01 09:59:52;;;;;;;6.72;2.90;;;;;;;20.29;69.83;98872.22;4977543;28;20042;-95
2022/10/01 10:02:36;;;;;;;5.55;2.80;;;;;;;19.98;68.78;98886.84;4967080;28;20066;-96
2022/10/01 10:05:13;;;;;;;7.22;3.10;;;;;;;19.69;69.21;98904.81;4985458;28;20035;-95
2022/10/01 10:07:49;;;;;;;7.03;3.55;;;;;;;19.75;67.04;98885.59;4984323;28;20168;-95
2022/10/01 10:17:26;;;;;;;5.65;2.55;;;;;;;19.95;65.16;98878.06;4970154;28;20162;-96
2022/10/01 10:20:24;;;;;;;4.30;2.63;;;;;;;19.93;64.85;98893.47;4953937;28;20047;-93
2022/10/01 10:23:18;;;;;;;4.72;2.88;;;;;;;19.81;64.82;98896.00;4969598;28;20049;-95
2022/10/01 10:26:02;;;;;;;4.72;2.60;;;;;;;19.45;67.33;98870.34;4984198;28;20125;-94
2022/10/01 10:42:49;;;;;;;3.55;2.10;;;;;;;19.51;63.67;98882.56;4926288;29;20032;-95
2022/10/01 10:49:25;;;;;;;6.10;2.30;;;;;;;19.45;63.50;98851.47;4926236;29;20046;-96
2022/10/01 10:52:09;;;;;;;4.93;2.25;;;;;;;19.55;66.83;98840.94;4922981;29;20052;-95
2022/10/01 11:08:31;;;;;;;3.80;1.98;;;;;;;19.37;58.25;98848.38;4908105;29;20055;-96
2022/10/01 11:18:49;;;;;;;3.63;2.20;;;;;;;19.20;61.47;98837.75;4987726;28;20113;-95
2022/10/01 11:22:17;;;;;;;;;;;;;;;;;;;;;
2022/10/01 11:32:18;;;;;;;5.22;1.88;;;;;;;19.28;55.41;98848.94;4781570;29;20040;-96
2022/10/01 12:09:52;;;;;;;5.97;1.80;;;;;;;19.78;54.77;98877.31;6307066;22;1471234;-95
2022/10/01 12:12:26;;;;;;;2.63;1.70;;;;;;;19.68;52.44;98851.84;6260649;22;20020;-94
2022/10/01 12:18:26;;;;;;;5.20;2.00;;;;;;;19.77;53.97;98862.06;6261428;23;20456;-94
2022/10/01 12:20:54;;;;;;;4.50;2.08;;;;;;;19.69;57.98;98848.16;6261875;22;20016;-95
2022/10/01 12:23:25;;;;;;;4.90;2.22;;;;;;;19.59;56.62;98838.94;6231895;23;20020;-96
2022/10/01 12:26:05;;;;;;;4.70;2.30;;;;;;;19.65;56.86;98855.59;6232238;23;20099;-96
2022/10/01 12:28:37;;;;;;;4.50;2.40;;;;;;;19.44;57.67;98832.66;6231693;23;20063;-94
2022/10/01 12:31:11;;;;;;;5.95;2.35;;;;;;;19.63;58.98;98835.09;6229105;23;20521;-95
2022/10/01 12:37:14;;;;;;;4.13;2.20;;;;;;;19.62;57.38;98833.34;6232585;23;20012;-95
2022/10/01 12:43:34;;;;;;;5.07;2.35;;;;;;;19.72;59.92;98802.16;6235714;23;20008;-94
2022/10/01 12:46:09;;;;;;;4.88;2.47;;;;;;;19.93;58.76;98835.00;6232979;23;20043;-94
2022/10/01 12:48:46;;;;;;;6.38;2.60;;;;;;;19.87;59.85;98830.84;6231892;23;20012;-94
2022/10/01 12:51:35;;;;;;;6.05;2.85;;;;;;;19.75;60.62;98820.84;6231398;23;20465;-94
2022/10/01 12:54:15;;;;;;;5.13;2.60;;;;;;;19.79;62.86;98808.03;6231167;23;20095;-95
2022/10/01 12:56:51;;;;;;;4.07;2.50;;;;;;;19.80;60.27;98809.75;6230407;23;20016;-95
2022/10/01 13:03:02;;;;;;;5.28;2.25;;;;;;;19.69;59.88;98797.81;6229275;23;20004;-94
2022/10/01 13:12:45;;;;;;;4.32;2.33;;;;;;;19.77;57.88;98827.00;6254422;22;20027;-96
2022/10/01 13:15:15;;;;;;;7.95;3.63;;;;;;;19.68;59.22;98812.22;6256682;23;20020;-92
2022/10/01 13:18:10;;;;;;;5.45;2.70;;;;;;;19.80;59.08;98823.22;6256307;23;20041;-95
2022/10/01 13:20:50;;;;;;;;;;;;;;;19.89;56.38;98858.59;6251442;23;20030;-95
2022/10/01 13:23:23;;;;;;;4.55;2.03;;;;;;;19.69;56.24;98805.00;6256830;23;19922;-94
2022/10/01 13:26:00;;;;;;;3.25;1.95;;;;;;;19.77;55.99;98813.50;6256579;23;20035;-95
2022/10/01 13:28:35;;;;;;;3.20;2.03;;;;;;;19.61;54.72;98810.03;6256128;23;20028;-93
2022/10/01 13:37:49;;;;;;;4.53;2.10;;;;;;;19.58;55.26;98830.00;6255152;23;20082;-94
2022/10/01 13:43:37;;;;;;;5.65;1.98;;;;;;;19.72;54.97;98839.94;6254324;23;20016;-96
2022/10/01 13:46:08;;;;;;;3.67;2.10;;;;;;;19.58;55.92;98821.91;6254775;23;20027;-96
2022/10/01 13:55:27;;;;;;;6.90;2.17;;;;;;;19.66;56.35;98853.75;6254932;23;20012;-95
2022/10/01 14:01:37;;;;;;;5.30;2.00;;;;;;;19.48;55.46;98835.06;6254319;23;20090;-95
2022/10/01 14:22:19;;;;;;;4.85;1.95;;;;;;;19.56;56.02;98850.78;6223598;23;20070;-94
2022/10/01 14:25:05;;;;;;;4.30;2.20;;;;;;;19.59;55.97;98844.34;6222717;23;20017;-96
2022/10/01 14:27:40;;;;;;;5.97;2.10;;;;;;;19.63;56.25;98854.84;6224944;23;20013;-96
2022/10/01 14:30:12;;;;;;;5.60;2.10;;;;;;;19.63;55.49;98846.75;6220552;23;20016;-95
2022/10/01 14:42:57;;;;;;;3.67;2.10;;;;;;;19.58;56.16;98827.28;6229657;23;20013;-95
2022/10/01 14:45:24;;;;;;;3.92;1.90;;;;;;;19.68;56.85;98824.84;6227829;23;20347;-95
2022/10/01 14:51:24;;;;;;;7.55;2.33;;;;;;;19.59;56.87;98825.44;6225287;23;20064;-94
2022/10/01 14:53:52;;;;;;;7.15;2.25;;;;;;;19.57;58.79;98824.69;6227251;23;20024;-95
2022/10/01 14:56:19;;;;;;;5.15;2.03;;;;;;;19.43;55.86;98821.03;6226905;23;20024;-96
2022/10/01 15:02:19;;;;;;;7.35;2.53;;;;;;;19.27;57.06;98822.94;6225085;23;20009;-93
2022/10/01 15:08:41;;;;;;;8.30;2.17;;;;;;;19.42;58.71;98854.34;6224578;23;20102;-94
2022/10/01 15:11:13;;;;;;;3.50;2.00;;;;;;;19.41;57.43;98841.81;6221322;23;20023;-95
2022/10/01 15:13:41;;;;;;;6.47;2.20;;;;;;;19.29;55.58;98821.00;6222934;23;20016;-96
2022/10/01 15:16:11;;;;;;;9.07;2.20;;;;;;;19.42;54.95;98837.28;6224563;22;20054;-94
2022/10/01 15:18:41;;;;;;;6.07;2.17;;;;;;;19.44;56.89;98841.63;6261056;23;20019;-94
2022/10/01 15:21:38;;;;;;;7.00;2.40;;;;;;;19.61;56.76;98861.28;6266434;22;20072;-95
2022/10/01 15:27:33;;;;;;;12.18;2.88;;;;;;;19.42;56.04;98848.06;6091603;22;20031;-95
2022/10/01 15:33:29;;;;;;;8.25;2.40;;;;;;;19.42;56.02;98892.09;6240277;23;20089;-92
2022/10/01 15:43:07;;;;;;;6.93;2.70;;;;;;;19.21;57.45;98882.59;6178605;23;20009;-95
2022/10/01 15:45:39;;;;;;;8.98;2.85;;;;;;;19.21;59.48;98879.91;6161800;23;20481;-93
2022/10/01 15:48:26;;;;;;;6.70;2.50;;;;;;;18.92;59.45;98841.25;6166151;23;20017;-94
2022/10/01 15:50:59;;;;;;;8.25;2.70;;;;;;;19.06;58.18;98884.41;6166774;23;20018;-93
2022/10/01 15:53:27;;;;;;;9.23;3.67;;;;;;;18.78;59.92;98836.69;6165854;23;20017;-95
2022/10/01 15:55:56;;;;;;;9.55;3.05;;;;;;;18.73;58.63;98828.84;6164053;23;20017;-95
2022/10/01 15:58:25;;;;;;;7.47;2.88;;;;;;;18.71;60.01;98836.16;6165855;23;20025;-94
2022/10/01 16:07:28;;;;;;;5.20;2.30;;;;;;;18.66;61.21;98878.66;6107758;23;20006;-94
2022/10/01 16:09:57;;;;;;;5.20;2.60;;;;;;;18.43;62.41;98850.34;6107737;23;20069;-96
2022/10/01 16:12:41;;;;;;;6.47;2.70;;;;;;;18.38;62.29;98865.91;6108481;23;20105;-95
2022/10/01 16:18:33;;;;;;;4.90;2.35;;;;;;;18.21;63.25;98861.50;6166465;23;20025;-96
2022/10/01 16:20:59;;;;;;;6.57;2.67;;;;;;;18.15;63.23;98876.19;6165199;23;20022;-94
2022/10/01 16:23:35;;;;;;;8.35;2.67;;;;;;;18.17;64.66;98903.88;6163638;23;20069;-95